Time;durP1;ratioP1;P1;durP2;ratioP2;P2;SDS_P1;SDS_P2;PMS_P1;PMS_P2;Temp;Humidity;BMP_temperature;BMP_pressure;BME280_temperature;BME280_humidity;BME280_pressure;Samples;Min_cycle;Max_cycle;Signal;HPM_P1;HPM_P2
2020/12/08 00:00:50;;;;;;;6.20;5.60;;;5.60;99.90;;;;;;5097053;28;20323;-58
2020/12/08 00:03:16;;;;;;;5.93;5.32;;;5.60;99.90;;;;;;5097218;28;20163;-58
2020/12/08 00:05:41;;;;;;;6.13;5.53;;;5.60;99.90;;;;;;5097305;28;20194;-58
2020/12/08 00:08:07;;;;;;;7.13;5.93;;;5.50;99.90;;;;;;5097629;28;20159;-58
2020/12/08 00:10:33;;;;;;;6.00;5.40;;;5.50;99.90;;;;;;5097368;28;20285;-58
2020/12/08 00:12:58;;;;;;;6.60;5.78;;;5.50;99.90;;;;;;5097022;28;20171;-58
2020/12/08 00:15:25;;;;;;;7.13;5.95;;;5.50;99.90;;;;;;5096989;28;20173;-58
2020/12/08 00:17:50;;;;;;;6.22;5.55;;;5.50;99.90;;;;;;5097051;28;20198;-58
2020/12/08 00:20:18;;;;;;;6.60;5.95;;;5.50;99.90;;;;;;5096779;28;20191;-58
2020/12/08 00:22:43;;;;;;;6.55;5.70;;;5.50;99.90;;;;;;5097024;28;20197;-58
2020/12/08 00:25:09;;;;;;;6.05;5.43;;;5.50;99.90;;;;;;5097023;28;20644;-58
2020/12/08 00:27:36;;;;;;;8.57;5.93;;;5.50;99.90;;;;;;5096687;28;20167;-58
2020/12/08 00:30:10;;;;;;;6.55;5.70;;;5.40;99.90;;;;;;5096682;28;20166;-58
2020/12/08 00:32:37;;;;;;;6.47;5.78;;;5.40;99.90;;;;;;5096872;28;20170;-58
2020/12/08 00:35:03;;;;;;;6.70;6.00;;;5.40;99.90;;;;;;5096775;28;20171;-58
2020/12/08 00:37:28;;;;;;;6.10;5.50;;;5.50;99.90;;;;;;5095939;28;20190;-58
2020/12/08 00:39:54;;;;;;;7.03;6.03;;;5.40;99.90;;;;;;5096685;28;20191;-58
2020/12/08 00:42:19;;;;;;;6.80;5.57;;;5.40;99.90;;;;;;5096332;28;20159;-58
2020/12/08 00:44:45;;;;;;;7.20;6.45;;;5.40;99.90;;;;;;5096799;28;20167;-58
2020/12/08 00:47:10;;;;;;;6.88;6.05;;;5.40;99.90;;;;;;5096577;28;20167;-58
2020/12/08 00:49:36;;;;;;;7.45;6.38;;;5.30;99.90;;;;;;5096379;28;20180;-58
2020/12/08 00:52:01;;;;;;;7.88;6.40;;;5.30;99.90;;;;;;5096294;28;20172;-58
2020/12/08 00:54:27;;;;;;;7.13;6.40;;;5.20;99.90;;;;;;5096635;28;20182;-58
2020/12/08 00:56:52;;;;;;;10.38;6.75;;;5.10;99.90;;;;;;5098197;28;20467;-58
2020/12/08 00:59:18;;;;;;;9.35;6.97;;;5.00;99.90;;;;;;5103033;28;20183;-58
2020/12/08 01:01:44;;;;;;;8.82;6.53;;;4.80;99.90;;;;;;5102388;28;20506;-58
2020/12/08 01:04:09;;;;;;;8.45;6.57;;;4.70;99.90;;;;;;5104100;28;20191;-58
2020/12/08 01:06:41;;;;;;;9.15;7.03;;;4.60;99.90;;;;;;5104565;28;20618;-58
2020/12/08 01:09:07;;;;;;;9.40;7.15;;;4.50;99.90;;;;;;5110201;28;20223;-58
2020/12/08 01:11:41;;;;;;;8.13;6.85;;;4.40;99.90;;;;;;5111018;28;20222;-58
2020/12/08 01:14:08;;;;;;;10.18;7.32;;;4.30;99.90;;;;;;5103148;28;20170;-58
2020/12/08 01:16:33;;;;;;;9.35;7.40;;;4.20;99.90;;;;;;5095956;28;20168;-58
2020/12/08 01:18:59;;;;;;;10.25;7.35;;;4.10;99.90;;;;;;5095678;28;20502;-58
2020/12/08 01:21:24;;;;;;;10.05;7.63;;;4.00;99.90;;;;;;5095694;28;20194;-58
2020/12/08 01:23:50;;;;;;;10.50;7.47;;;4.00;99.90;;;;;;5095556;28;20159;-59
2020/12/08 01:26:33;;;;;;;9.85;7.70;;;3.90;99.90;;;;;;5095602;28;20613;-57
2020/12/08 01:28:59;;;;;;;10.40;7.55;;;3.80;99.90;;;;;;5096253;28;20512;-57
2020/12/08 01:31:31;;;;;;;9.95;7.60;;;3.80;99.90;;;;;;5095519;28;20201;-57
2020/12/08 01:33:57;;;;;;;10.60;8.07;;;3.70;99.90;;;;;;5095425;28;20191;-57
2020/12/08 01:36:22;;;;;;;12.30;8.15;;;3.60;99.90;;;;;;5095442;28;20508;-57
2020/12/08 01:38:48;;;;;;;11.07;8.27;;;3.60;99.90;;;;;;5095353;28;20592;-57
2020/12/08 01:41:13;;;;;;;12.63;8.68;;;3.50;99.90;;;;;;5095277;28;20280;-57
2020/12/08 01:43:50;;;;;;;10.68;8.02;;;3.40;99.90;;;;;;5095301;28;20206;-57
2020/12/08 01:46:24;;;;;;;12.32;8.40;;;3.30;99.90;;;;;;5095349;28;20262;-57
2020/12/08 01:48:50;;;;;;;11.88;9.05;;;3.20;99.90;;;;;;5094420;28;20503;-58
2020/12/08 01:51:20;;;;;;;11.07;8.65;;;3.20;99.90;;;;;;5095811;28;20260;-57
2020/12/08 01:53:48;;;;;;;11.82;8.93;;;3.10;99.90;;;;;;5095106;28;20182;-56
2020/12/08 01:56:14;;;;;;;11.65;8.40;;;3.10;99.90;;;;;;5095400;28;20202;-57
2020/12/08 01:58:40;;;;;;;11.27;8.27;;;3.00;99.90;;;;;;5095073;28;20174;-57
2020/12/08 02:01:08;;;;;;;11.85;8.85;;;3.00;99.90;;;;;;5095265;28;20590;-58
2020/12/08 02:03:33;;;;;;;12.30;8.80;;;2.90;99.90;;;;;;5094990;28;20166;-58
2020/12/08 02:05:59;;;;;;;12.57;9.60;;;2.90;99.90;;;;;;5094374;28;20557;-58
2020/12/08 02:08:29;;;;;;;11.93;8.88;;;2.90;99.90;;;;;;5094909;28;20160;-59
2020/12/08 02:10:55;;;;;;;13.57;9.82;;;2.90;99.90;;;;;;5095251;28;20171;-58
2020/12/08 02:13:21;;;;;;;12.45;9.15;;;2.90;99.90;;;;;;5095009;28;20177;-58
2020/12/08 02:15:47;;;;;;;12.57;9.45;;;2.90;99.90;;;;;;5095226;28;20167;-58
2020/12/08 02:18:13;;;;;;;12.90;8.85;;;3.00;99.90;;;;;;5094770;28;20610;-59
2020/12/08 02:20:39;;;;;;;13.73;9.68;;;3.00;99.90;;;;;;5095098;28;20221;-59
2020/12/08 02:23:04;;;;;;;14.20;10.05;;;3.00;99.90;;;;;;5095024;28;20591;-59
2020/12/08 02:25:30;;;;;;;14.10;9.85;;;3.00;99.90;;;;;;5094852;28;20583;-58
2020/12/08 02:27:55;;;;;;;13.13;10.05;;;3.00;99.90;;;;;;5094697;28;20175;-59
2020/12/08 02:30:21;;;;;;;14.00;10.48;;;3.00;99.90;;;;;;5094885;28;20186;-59
2020/12/08 02:32:46;;;;;;;15.68;11.13;;;2.90;99.90;;;;;;5094878;28;20168;-59
2020/12/08 02:35:12;;;;;;;19.20;12.10;;;2.90;99.90;;;;;;5094660;28;20168;-59
2020/12/08 02:37:37;;;;;;;18.13;12.10;;;2.90;99.90;;;;;;5094892;28;20561;-58
2020/12/08 02:40:04;;;;;;;18.02;12.10;;;2.90;99.90;;;;;;5095206;28;20191;-59
2020/12/08 02:42:30;;;;;;;16.58;11.10;;;2.90;99.90;;;;;;5094680;28;20164;-59
2020/12/08 02:44:55;;;;;;;16.98;11.45;;;2.90;99.90;;;;;;5094582;28;20170;-59
2020/12/08 02:47:21;;;;;;;18.17;12.25;;;3.00;99.90;;;;;;5094776;28;20148;-59
2020/12/08 02:49:46;;;;;;;16.95;12.32;;;3.00;99.90;;;;;;5094532;28;20167;-58
2020/12/08 02:52:12;;;;;;;19.98;12.48;;;3.00;99.90;;;;;;5094895;28;20168;-59
2020/12/08 02:54:37;;;;;;;17.45;11.55;;;3.00;99.90;;;;;;5094508;28;20171;-59
2020/12/08 02:57:05;;;;;;;18.67;12.20;;;3.00;99.90;;;;;;5094503;28;20217;-58
2020/12/08 02:59:32;;;;;;;17.77;12.07;;;3.00;99.90;;;;;;5095581;28;20272;-59
2020/12/08 03:01:58;;;;;;;18.23;11.63;;;3.00;99.90;;;;;;5098335;28;20162;-59
2020/12/08 03:04:23;;;;;;;18.33;11.65;;;2.90;99.90;;;;;;5098549;28;20164;-59
2020/12/08 03:06:49;;;;;;;19.42;12.27;;;2.90;99.90;;;;;;5098554;28;20172;-59
2020/12/08 03:09:14;;;;;;;23.17;12.60;;;2.80;99.90;;;;;;5098265;28;20166;-58
2020/12/08 03:11:40;;;;;;;19.55;13.43;;;2.80;99.90;;;;;;5098501;28;20175;-59
2020/12/08 03:14:05;;;;;;;22.58;13.88;;;2.80;99.90;;;;;;5098211;28;20252;-59
2020/12/08 03:16:33;;;;;;;22.15;14.85;;;2.80;99.90;;;;;;5098110;28;20618;-58
2020/12/08 03:18:58;;;;;;;25.67;14.90;;;2.80;99.90;;;;;;5098020;28;20163;-59
2020/12/08 03:21:24;;;;;;;21.67;14.48;;;2.80;99.90;;;;;;5098247;28;20488;-59
2020/12/08 03:23:49;;;;;;;24.42;15.35;;;2.80;99.90;;;;;;5098193;28;20164;-59
2020/12/08 03:26:21;;;;;;;26.95;16.63;;;2.80;99.90;;;;;;5098505;28;20164;-58
2020/12/08 03:28:47;;;;;;;26.58;16.10;;;2.80;99.90;;;;;;5097760;28;20195;-59
2020/12/08 03:31:13;;;;;;;26.60;16.27;;;2.80;99.90;;;;;;5097861;28;20254;-59
2020/12/08 03:33:38;;;;;;;29.42;17.50;;;2.90;99.90;;;;;;5097873;28;20604;-58
2020/12/08 03:36:04;;;;;;;28.27;17.42;;;2.90;99.90;;;;;;5097746;28;20175;-59
2020/12/08 03:38:29;;;;;;;28.63;16.48;;;3.00;99.90;;;;;;5097642;28;20163;-59
2020/12/08 03:40:55;;;;;;;28.33;16.70;;;3.10;99.90;;;;;;5096640;28;20207;-59
2020/12/08 03:43:20;;;;;;;30.13;18.48;;;3.10;99.90;;;;;;5097519;28;20298;-59
2020/12/08 03:45:46;;;;;;;27.33;17.25;;;3.10;99.90;;;;;;5097482;28;20183;-58
2020/12/08 03:48:11;;;;;;;28.35;17.42;;;3.10;99.90;;;;;;5097960;28;20171;-59
2020/12/08 03:50:37;;;;;;;31.00;18.15;;;3.20;99.90;;;;;;5097531;28;20167;-59
2020/12/08 03:53:02;;;;;;;30.63;18.92;;;3.20;99.90;;;;;;5097760;28;20233;-58
2020/12/08 03:55:28;;;;;;;29.67;18.95;;;3.30;99.90;;;;;;5097325;28;20191;-59
2020/12/08 03:57:53;;;;;;;30.90;18.63;;;3.30;99.90;;;;;;5097646;28;20221;-58
2020/12/08 04:00:19;;;;;;;30.35;19.40;;;3.40;99.90;;;;;;5097181;28;20179;-59
2020/12/08 04:02:44;;;;;;;34.42;19.73;;;3.40;99.90;;;;;;5097277;28;20171;-59
2020/12/08 04:05:10;;;;;;;34.55;19.98;;;3.50;99.90;;;;;;5097229;28;20607;-59
2020/12/08 04:07:35;;;;;;;31.00;20.23;;;3.50;99.90;;;;;;5097143;28;20171;-59
2020/12/08 04:10:01;;;;;;;31.55;19.35;;;3.50;99.90;;;;;;5097111;28;20198;-59
2020/12/08 04:12:27;;;;;;;31.20;18.40;;;3.50;99.90;;;;;;5095653;28;20255;-59
2020/12/08 04:14:52;;;;;;;32.72;19.38;;;3.60;99.90;;;;;;5096926;28;20195;-59
2020/12/08 04:17:19;;;;;;;33.88;19.48;;;3.60;99.90;;;;;;5096992;28;20175;-59
2020/12/08 04:19:45;;;;;;;31.95;20.30;;;3.60;99.90;;;;;;5096740;28;20590;-59
2020/12/08 04:22:11;;;;;;;29.40;18.95;;;3.70;99.90;;;;;;5096813;28;20171;-58
2020/12/08 04:24:36;;;;;;;34.97;20.38;;;3.70;99.90;;;;;;5096921;28;20163;-59
2020/12/08 04:27:03;;;;;;;32.38;19.75;;;3.70;99.90;;;;;;5097007;28;20599;-59
2020/12/08 04:29:28;;;;;;;32.13;19.88;;;3.80;99.90;;;;;;5096666;28;20170;-59
2020/12/08 04:31:54;;;;;;;33.33;19.67;;;3.80;99.90;;;;;;5096573;28;20159;-59
2020/12/08 04:34:20;;;;;;;34.45;19.55;;;3.80;99.90;;;;;;5096912;28;20171;-59
2020/12/08 04:36:45;;;;;;;33.65;19.38;;;3.80;99.90;;;;;;5096609;28;20528;-58
2020/12/08 04:39:11;;;;;;;32.78;19.85;;;3.90;99.90;;;;;;5096767;28;20171;-59
2020/12/08 04:41:36;;;;;;;34.53;20.23;;;3.90;99.90;;;;;;5096502;28;20195;-59
2020/12/08 04:44:05;;;;;;;31.02;18.80;;;3.90;99.90;;;;;;5096448;28;20170;-59
2020/12/08 04:46:30;;;;;;;34.83;21.23;;;4.00;99.90;;;;;;5096322;28;20183;-59
2020/12/08 04:48:56;;;;;;;31.55;19.83;;;4.00;99.90;;;;;;5096502;28;20179;-59
2020/12/08 04:51:22;;;;;;;31.92;18.80;;;4.00;99.90;;;;;;5096058;28;20164;-59
2020/12/08 04:53:48;;;;;;;30.50;19.20;;;4.00;99.90;;;;;;5105584;28;20181;-59
2020/12/08 04:56:14;;;;;;;33.72;20.00;;;4.10;99.90;;;;;;5102524;28;20266;-59
2020/12/08 04:58:42;;;;;;;31.67;20.27;;;4.10;99.90;;;;;;5105650;28;20171;-58
2020/12/08 05:01:08;;;;;;;32.20;19.30;;;4.10;99.90;;;;;;5106457;28;20247;-59
2020/12/08 05:03:34;;;;;;;29.52;19.08;;;4.10;99.90;;;;;;5104515;28;20210;-58
2020/12/08 05:06:00;;;;;;;33.20;20.13;;;4.10;99.90;;;;;;5108185;28;20160;-58
2020/12/08 05:08:26;;;;;;;32.08;19.52;;;4.10;99.90;;;;;;5104395;28;20248;-58
2020/12/08 05:10:51;;;;;;;30.08;19.73;;;4.10;99.90;;;;;;5095908;28;20159;-58
2020/12/08 05:13:22;;;;;;;31.73;19.15;;;4.20;99.90;;;;;;5095888;28;20279;-58
2020/12/08 05:16:04;;;;;;;31.58;18.95;;;4.20;99.90;;;;;;5096005;28;20171;-58
2020/12/08 05:18:34;;;;;;;32.55;20.05;;;4.20;99.90;;;;;;5096031;28;20175;-58
2020/12/08 05:21:09;;;;;;;29.48;18.63;;;4.20;99.90;;;;;;5095796;28;20201;-58
2020/12/08 05:23:39;;;;;;;35.63;20.58;;;4.20;99.90;;;;;;5095579;28;20224;-58
2020/12/08 05:26:09;;;;;;;31.23;18.67;;;4.20;99.90;;;;;;5095696;28;20474;-58
2020/12/08 05:28:35;;;;;;;33.90;20.83;;;4.20;99.90;;;;;;5095791;28;20180;-58
2020/12/08 05:31:00;;;;;;;31.27;18.90;;;4.20;99.90;;;;;;5095462;28;20159;-58
2020/12/08 05:33:26;;;;;;;32.90;19.55;;;4.20;99.90;;;;;;5095393;28;20559;-58
2020/12/08 05:35:52;;;;;;;33.33;20.05;;;4.10;99.90;;;;;;5095502;28;20176;-57
2020/12/08 05:38:19;;;;;;;31.00;19.02;;;4.20;99.90;;;;;;5094692;28;20166;-57
2020/12/08 05:40:45;;;;;;;31.25;19.00;;;4.20;99.90;;;;;;5094402;28;20195;-57
2020/12/08 05:43:11;;;;;;;32.42;19.98;;;4.20;99.90;;;;;;5094590;28;20156;-57
2020/12/08 05:45:37;;;;;;;33.35;19.85;;;4.20;99.90;;;;;;5094716;28;20183;-57
2020/12/08 05:48:02;;;;;;;32.00;18.98;;;4.20;99.90;;;;;;5095110;28;20159;-57
2020/12/08 05:50:28;;;;;;;30.88;19.38;;;4.20;99.90;;;;;;5095034;28;20163;-57
2020/12/08 05:52:58;;;;;;;29.23;18.88;;;4.30;99.90;;;;;;5095379;28;20604;-57
2020/12/08 05:55:27;;;;;;;32.63;19.83;;;4.30;99.90;;;;;;5093997;28;20280;-57
2020/12/08 05:57:53;;;;;;;35.83;19.90;;;4.30;99.90;;;;;;5095701;28;20159;-57
2020/12/08 06:00:24;;;;;;;32.50;19.20;;;4.30;99.90;;;;;;5095033;28;20525;-58
2020/12/08 06:02:52;;;;;;;31.10;18.25;;;4.30;99.90;;;;;;5094005;28;20159;-57
2020/12/08 06:05:28;;;;;;;35.47;20.00;;;4.30;99.90;;;;;;5094229;28;20175;-59
2020/12/08 06:07:54;;;;;;;32.42;20.27;;;4.30;99.90;;;;;;5094939;28;20603;-58
2020/12/08 06:10:19;;;;;;;33.88;19.80;;;4.30;99.90;;;;;;5095106;28;20209;-59
2020/12/08 06:12:58;;;;;;;31.90;19.13;;;4.30;99.90;;;;;;5094911;28;20267;-58
2020/12/08 06:15:25;;;;;;;31.75;19.25;;;4.30;99.90;;;;;;5095039;28;20183;-58
2020/12/08 06:17:51;;;;;;;30.40;19.02;;;4.30;99.90;;;;;;5095106;28;20164;-59
2020/12/08 06:20:17;;;;;;;30.52;19.20;;;4.30;99.90;;;;;;5094587;28;20526;-59
2020/12/08 06:22:56;;;;;;;31.58;19.52;;;4.30;99.90;;;;;;5095016;28;20178;-58
2020/12/08 06:25:22;;;;;;;31.77;19.00;;;4.30;99.90;;;;;;5095005;28;20190;-59
2020/12/08 06:27:48;;;;;;;32.05;19.55;;;4.30;99.90;;;;;;5094889;28;20171;-58
2020/12/08 06:30:19;;;;;;;34.55;20.13;;;4.30;99.90;;;;;;5094578;28;20634;-59
2020/12/08 06:32:44;;;;;;;31.65;19.77;;;4.30;99.90;;;;;;5094964;28;20238;-59
2020/12/08 06:35:12;;;;;;;33.47;19.42;;;4.40;99.90;;;;;;5097202;28;20640;-59
2020/12/08 06:37:48;;;;;;;31.48;19.58;;;4.30;99.90;;;;;;5098780;28;20167;-59
2020/12/08 06:40:16;;;;;;;32.53;19.60;;;4.40;99.90;;;;;;5098886;28;20171;-58
2020/12/08 06:42:42;;;;;;;29.75;19.02;;;4.40;99.90;;;;;;5099016;28;20163;-59
2020/12/08 06:45:12;;;;;;;32.38;20.13;;;4.40;99.90;;;;;;5098660;28;20183;-59
2020/12/08 06:47:39;;;;;;;29.95;19.42;;;4.40;99.90;;;;;;5098872;28;20255;-59
2020/12/08 06:50:06;;;;;;;30.38;18.45;;;4.40;99.90;;;;;;5098730;28;20160;-59
2020/12/08 06:52:33;;;;;;;33.90;20.00;;;4.40;99.90;;;;;;5098633;28;20172;-58
2020/12/08 06:55:03;;;;;;;34.15;20.70;;;4.40;99.90;;;;;;5098273;28;20232;-58
2020/12/08 06:57:29;;;;;;;30.60;19.27;;;4.40;99.90;;;;;;5098640;28;20525;-58
2020/12/08 07:00:24;;;;;;;34.20;20.73;;;4.40;99.90;;;;;;5098324;28;20191;-58
2020/12/08 07:02:51;;;;;;;29.38;18.58;;;4.40;99.90;;;;;;5095967;28;20241;-58
2020/12/08 07:05:30;;;;;;;32.03;19.42;;;4.50;99.90;;;;;;5097694;28;20168;-57
2020/12/08 07:08:03;;;;;;;33.75;20.05;;;4.50;99.90;;;;;;5097590;28;20158;-58
2020/12/08 07:10:29;;;;;;;31.88;20.52;;;4.50;99.90;;;;;;5097710;28;20164;-58
2020/12/08 07:12:55;;;;;;;30.85;19.70;;;4.50;99.90;;;;;;5097416;28;20536;-58
2020/12/08 07:15:25;;;;;;;30.27;18.90;;;4.50;99.90;;;;;;5098342;28;20229;-59
2020/12/08 07:18:00;;;;;;;31.27;19.00;;;4.50;99.90;;;;;;5097935;28;20170;-58
2020/12/08 07:20:26;;;;;;;33.67;20.10;;;4.50;99.90;;;;;;5097763;28;20191;-58
2020/12/08 07:22:52;;;;;;;29.38;18.80;;;4.50;99.90;;;;;;5097833;28;20191;-57
2020/12/08 07:25:18;;;;;;;36.00;19.77;;;4.60;99.90;;;;;;5098164;28;20175;-57
2020/12/08 07:27:50;;;;;;;34.13;20.10;;;4.60;99.90;;;;;;5097841;28;20194;-59
2020/12/08 07:30:18;;;;;;;31.13;18.92;;;4.60;99.90;;;;;;5098037;28;20176;-59
2020/12/08 07:32:44;;;;;;;32.75;19.77;;;4.60;99.90;;;;;;5097767;28;20172;-57
2020/12/08 07:35:26;;;;;;;31.92;20.52;;;4.60;99.90;;;;;;5097998;28;20497;-57
2020/12/08 07:37:54;;;;;;;32.97;19.63;;;4.60;99.90;;;;;;5097695;28;20197;-58
2020/12/08 07:40:19;;;;;;;32.70;18.77;;;4.60;99.90;;;;;;5097537;28;20194;-58
2020/12/08 07:42:50;;;;;;;32.10;20.55;;;4.70;99.90;;;;;;5097481;28;20163;-58
2020/12/08 07:45:16;;;;;;;32.05;19.23;;;4.70;99.90;;;;;;5096985;28;20180;-58
2020/12/08 07:47:41;;;;;;;32.03;19.20;;;4.70;99.90;;;;;;5096628;28;20611;-58
2020/12/08 07:50:07;;;;;;;31.63;18.67;;;4.70;99.90;;;;;;5096652;28;20186;-59
2020/12/08 07:52:33;;;;;;;29.63;19.25;;;4.70;99.90;;;;;;5097282;28;20171;-59
2020/12/08 07:54:58;;;;;;;32.17;19.20;;;4.70;99.90;;;;;;5097313;28;20163;-59
2020/12/08 07:57:24;;;;;;;31.88;19.58;;;4.70;99.90;;;;;;5097072;28;20172;-59
2020/12/08 07:59:50;;;;;;;31.23;19.95;;;4.70;99.90;;;;;;5096306;28;20183;-59
2020/12/08 08:02:15;;;;;;;31.23;19.33;;;4.70;99.90;;;;;;5097405;28;20180;-58
2020/12/08 08:04:41;;;;;;;30.25;20.05;;;4.70;99.90;;;;;;5097168;28;20203;-59
2020/12/08 08:07:07;;;;;;;34.05;21.27;;;4.70;99.90;;;;;;5097100;28;20196;-58
2020/12/08 08:09:32;;;;;;;29.23;18.90;;;4.70;99.90;;;;;;5097478;28;20216;-59
2020/12/08 08:11:59;;;;;;;32.35;21.08;;;4.70;99.90;;;;;;5097265;28;20498;-59
2020/12/08 08:14:26;;;;;;;32.05;20.08;;;4.80;99.90;;;;;;5097651;28;20156;-59
2020/12/08 08:16:52;;;;;;;31.40;20.10;;;4.80;99.90;;;;;;5097169;28;20496;-59
2020/12/08 08:19:17;;;;;;;31.08;19.30;;;4.80;99.90;;;;;;5096839;28;20163;-58
2020/12/08 08:21:44;;;;;;;31.85;19.92;;;4.90;99.90;;;;;;5096730;28;20263;-59
2020/12/08 08:24:10;;;;;;;31.30;20.00;;;4.90;99.90;;;;;;5097157;28;20683;-59
2020/12/08 08:26:39;;;;;;;32.60;20.33;;;4.90;99.90;;;;;;5096686;28;20201;-58
2020/12/08 08:29:04;;;;;;;31.85;19.95;;;4.90;99.90;;;;;;5096926;28;20167;-59
2020/12/08 08:31:30;;;;;;;31.00;20.45;;;5.00;99.90;;;;;;5096461;28;20224;-57
2020/12/08 08:33:56;;;;;;;30.25;19.52;;;5.00;99.90;;;;;;5096678;28;20360;-58
2020/12/08 08:36:21;;;;;;;32.95;20.50;;;5.00;99.90;;;;;;5096824;28;20182;-58
2020/12/08 08:38:47;;;;;;;31.05;20.30;;;5.00;99.90;;;;;;5096586;28;20220;-58
2020/12/08 08:41:12;;;;;;;30.77;19.48;;;5.10;99.90;;;;;;5095535;28;20192;-58
2020/12/08 08:43:39;;;;;;;32.65;19.80;;;5.10;99.90;;;;;;5096619;28;20160;-58
2020/12/08 08:46:05;;;;;;;30.90;19.85;;;5.10;99.90;;;;;;5096293;28;20282;-58
2020/12/08 08:48:30;;;;;;;32.05;19.42;;;5.10;99.90;;;;;;5096608;28;20251;-58
2020/12/08 08:50:56;;;;;;;32.70;20.55;;;5.10;99.90;;;;;;5095745;28;20550;-58
2020/12/08 08:53:21;;;;;;;32.20;20.77;;;5.10;99.90;;;;;;5096264;28;20159;-58
2020/12/08 08:55:47;;;;;;;33.30;19.67;;;5.10;99.90;;;;;;5096610;28;20164;-58
2020/12/08 08:58:14;;;;;;;32.50;21.50;;;5.10;99.90;;;;;;5098902;28;20171;-58
2020/12/08 09:00:39;;;;;;;32.13;20.75;;;5.10;99.90;;;;;;5101662;28;20183;-58
2020/12/08 09:03:08;;;;;;;31.73;19.75;;;5.20;99.90;;;;;;5100401;28;20538;-59
2020/12/08 09:05:34;;;;;;;28.48;18.75;;;5.30;99.90;;;;;;5106282;28;20181;-59
2020/12/08 09:07:59;;;;;;;28.90;19.25;;;5.40;99.90;;;;;;5107196;28;20156;-58
2020/12/08 09:10:25;;;;;;;30.55;19.20;;;5.50;99.90;;;;;;5104621;28;20163;-58
2020/12/08 09:12:51;;;;;;;29.88;19.25;;;5.50;99.90;;;;;;5107831;28;20167;-58
2020/12/08 09:15:16;;;;;;;28.38;18.50;;;5.50;99.90;;;;;;5106161;28;20222;-59
2020/12/08 09:17:42;;;;;;;30.10;18.38;;;5.60;99.90;;;;;;5096208;28;20664;-58
2020/12/08 09:20:07;;;;;;;32.83;19.30;;;5.60;99.90;;;;;;5095076;28;20198;-58
2020/12/08 09:22:33;;;;;;;28.80;18.92;;;5.60;99.90;;;;;;5095458;28;20227;-58
2020/12/08 09:24:59;;;;;;;29.63;19.55;;;5.70;99.90;;;;;;5095595;28;20198;-58
2020/12/08 09:27:24;;;;;;;28.35;19.00;;;5.60;99.90;;;;;;5095654;28;20156;-58
2020/12/08 09:29:50;;;;;;;28.40;17.65;;;5.60;99.90;;;;;;5094598;28;20171;-58
2020/12/08 09:32:16;;;;;;;31.20;18.75;;;5.60;99.90;;;;;;5095632;28;20164;-58
2020/12/08 09:34:41;;;;;;;28.40;18.35;;;5.60;99.90;;;;;;5095338;28;20195;-58
2020/12/08 09:37:07;;;;;;;30.98;18.95;;;5.60;99.90;;;;;;5095170;28;20168;-58
2020/12/08 09:39:32;;;;;;;26.42;18.48;;;5.70;99.90;;;;;;5094106;28;20266;-58
2020/12/08 09:41:59;;;;;;;29.08;18.77;;;5.70;99.90;;;;;;5095136;28;20219;-58
2020/12/08 09:44:25;;;;;;;30.77;20.58;;;5.80;99.90;;;;;;5094127;28;20250;-58
2020/12/08 09:46:51;;;;;;;28.95;18.63;;;5.80;99.90;;;;;;5095024;28;20490;-58
2020/12/08 09:49:17;;;;;;;30.08;19.30;;;5.80;99.90;;;;;;5094959;28;20292;-58
2020/12/08 09:51:42;;;;;;;28.73;18.65;;;5.80;99.90;;;;;;5095373;28;20193;-58
2020/12/08 09:54:08;;;;;;;27.63;18.70;;;5.80;99.90;;;;;;5094907;28;20173;-58
2020/12/08 09:56:33;;;;;;;28.25;17.80;;;5.80;99.90;;;;;;5095016;28;20224;-58
2020/12/08 09:58:59;;;;;;;25.92;17.27;;;5.80;99.90;;;;;;5095530;28;20169;-58
2020/12/08 10:01:30;;;;;;;30.35;19.50;;;5.70;99.90;;;;;;5094022;28;20313;-58
2020/12/08 10:03:56;;;;;;;28.13;18.42;;;5.70;99.90;;;;;;5095102;28;20235;-58
2020/12/08 10:06:22;;;;;;;27.63;18.05;;;5.70;99.90;;;;;;5095090;28;20622;-58
2020/12/08 10:08:49;;;;;;;29.80;18.25;;;5.70;99.90;;;;;;5093426;28;20525;-59
2020/12/08 10:11:15;;;;;;;32.25;19.10;;;5.70;99.90;;;;;;5095008;28;20258;-58
2020/12/08 10:13:41;;;;;;;28.60;18.77;;;5.60;99.90;;;;;;5095118;28;20238;-58
2020/12/08 10:16:07;;;;;;;31.23;19.17;;;5.60;99.90;;;;;;5094903;28;20178;-58
2020/12/08 10:18:33;;;;;;;30.60;19.38;;;5.60;99.90;;;;;;5094820;28;20615;-58
2020/12/08 10:20:59;;;;;;;29.52;18.35;;;5.60;99.90;;;;;;5094978;28;20219;-58
2020/12/08 10:23:25;;;;;;;29.10;18.58;;;5.70;99.90;;;;;;5094774;28;20202;-59
2020/12/08 10:25:51;;;;;;;27.88;18.83;;;5.70;99.90;;;;;;5094775;28;20555;-59
2020/12/08 10:28:17;;;;;;;29.75;18.73;;;5.80;99.90;;;;;;5094679;28;20201;-59
2020/12/08 10:30:42;;;;;;;28.77;18.85;;;5.80;99.90;;;;;;5093843;28;20163;-57
2020/12/08 10:33:08;;;;;;;28.58;19.45;;;5.80;99.90;;;;;;5094677;28;20167;-59
2020/12/08 10:35:33;;;;;;;27.48;18.42;;;5.80;99.90;;;;;;5094703;28;20210;-59
2020/12/08 10:37:59;;;;;;;29.40;19.35;;;5.80;99.90;;;;;;5094840;28;20170;-59
2020/12/08 10:40:24;;;;;;;30.00;18.90;;;5.80;99.90;;;;;;5094555;28;20186;-59
2020/12/08 10:42:50;;;;;;;30.52;18.73;;;5.80;99.90;;;;;;5095433;28;20156;-59
2020/12/08 10:45:15;;;;;;;29.92;18.55;;;5.90;99.90;;;;;;5094762;28;20642;-59
2020/12/08 10:47:41;;;;;;;29.92;18.65;;;5.90;99.90;;;;;;5094509;28;20182;-58
2020/12/08 10:50:07;;;;;;;29.02;18.90;;;6.00;99.90;;;;;;5094638;28;20175;-59
2020/12/08 10:52:32;;;;;;;27.42;18.75;;;6.00;99.90;;;;;;5095107;28;20164;-59
2020/12/08 10:54:58;;;;;;;31.65;20.40;;;6.00;99.90;;;;;;5094488;28;20214;-59
2020/12/08 10:57:23;;;;;;;33.20;19.60;;;6.00;99.90;;;;;;5095304;28;20163;-59
2020/12/08 10:59:49;;;;;;;26.77;18.10;;;6.00;99.90;;;;;;5094304;28;20198;-59
2020/12/08 11:02:15;;;;;;;28.67;19.27;;;6.00;99.90;;;;;;5094548;28;20208;-59
2020/12/08 11:04:40;;;;;;;32.08;18.77;;;6.00;99.90;;;;;;5094217;28;20156;-59
2020/12/08 11:07:06;;;;;;;27.77;18.17;;;6.00;99.90;;;;;;5094277;28;20258;-58
2020/12/08 11:09:31;;;;;;;24.08;17.77;;;6.10;99.90;;;;;;5093845;28;20213;-58
2020/12/08 11:11:57;;;;;;;27.25;18.30;;;6.20;99.90;;;;;;5094325;28;20246;-60
2020/12/08 11:14:23;;;;;;;28.63;17.95;;;6.30;99.90;;;;;;5094205;28;20218;-59
2020/12/08 11:16:48;;;;;;;28.67;18.92;;;6.30;99.90;;;;;;5094328;28;20151;-59
2020/12/08 11:19:14;;;;;;;27.35;17.58;;;6.40;99.90;;;;;;5094134;28;20156;-59
2020/12/08 11:21:41;;;;;;;27.38;18.45;;;6.50;99.90;;;;;;5097002;28;20183;-59
2020/12/08 11:24:08;;;;;;;29.00;18.63;;;6.60;99.90;;;;;;5097921;28;20170;-59
2020/12/08 11:26:34;;;;;;;27.15;18.52;;;6.70;99.90;;;;;;5096446;28;20600;-59
2020/12/08 11:29:00;;;;;;;29.15;18.60;;;6.80;99.90;;;;;;5097442;28;20167;-59
2020/12/08 11:31:26;;;;;;;26.63;18.00;;;6.70;99.90;;;;;;5097555;28;20476;-59
2020/12/08 11:33:52;;;;;;;27.08;17.98;;;6.70;99.90;;;;;;5094622;28;20174;-59
2020/12/08 11:36:18;;;;;;;25.48;17.45;;;6.60;99.90;;;;;;5093849;28;20330;-59
2020/12/08 11:38:44;;;;;;;26.67;18.33;;;6.60;99.90;;;;;;5093973;28;20172;-59
2020/12/08 11:41:10;;;;;;;26.00;18.25;;;6.60;99.90;;;;;;5093871;28;20248;-60
2020/12/08 11:43:39;;;;;;;28.20;19.25;;;6.50;99.90;;;;;;5092494;28;20170;-60
2020/12/08 11:46:05;;;;;;;27.60;18.75;;;6.50;99.90;;;;;;5093489;28;20237;-60
2020/12/08 11:48:31;;;;;;;28.17;18.90;;;6.50;99.90;;;;;;5094292;28;20160;-60
2020/12/08 11:50:56;;;;;;;28.95;18.38;;;6.60;99.90;;;;;;5097150;28;20179;-60
2020/12/08 11:53:22;;;;;;;30.80;20.10;;;6.60;99.90;;;;;;5097449;28;20171;-60
2020/12/08 11:55:49;;;;;;;25.30;17.17;;;6.60;99.90;;;;;;5097333;28;20163;-60
2020/12/08 11:58:15;;;;;;;28.58;18.63;;;6.70;99.90;;;;;;5096699;28;20160;-60
2020/12/08 12:00:41;;;;;;;27.80;18.33;;;6.80;99.90;;;;;;5095069;28;20187;-60
2020/12/08 12:03:07;;;;;;;25.75;18.08;;;6.90;99.90;;;;;;5097668;28;20178;-60
2020/12/08 12:05:32;;;;;;;29.10;17.70;;;7.00;99.90;;;;;;5097224;28;20164;-60
2020/12/08 12:07:58;;;;;;;26.40;17.67;;;7.00;99.90;;;;;;5097385;28;20496;-60
2020/12/08 12:10:24;;;;;;;26.65;18.42;;;7.10;99.90;;;;;;5096826;28;20167;-60
2020/12/08 12:12:49;;;;;;;28.17;18.08;;;7.20;99.90;;;;;;5096888;28;20169;-62
2020/12/08 12:15:15;;;;;;;28.23;18.93;;;7.10;99.90;;;;;;5096629;28;20401;-62
2020/12/08 12:17:40;;;;;;;27.50;18.17;;;7.10;99.90;;;;;;5096898;28;20458;-59
2020/12/08 12:20:07;;;;;;;30.27;18.95;;;7.00;99.90;;;;;;5096822;28;20557;-59
2020/12/08 12:22:33;;;;;;;30.13;18.58;;;7.00;99.90;;;;;;5096891;28;20532;-60
2020/12/08 12:24:59;;;;;;;28.15;19.00;;;6.90;99.90;;;;;;5097127;28;20234;-59
2020/12/08 12:27:25;;;;;;;26.20;18.70;;;6.90;99.90;;;;;;5096803;28;20164;-59
2020/12/08 12:29:51;;;;;;;28.27;19.13;;;6.90;99.90;;;;;;5096810;28;20595;-59
2020/12/08 12:32:16;;;;;;;31.40;18.85;;;6.90;99.90;;;;;;5095983;28;20210;-59
2020/12/08 12:34:42;;;;;;;27.33;18.55;;;7.00;99.90;;;;;;5096777;28;20160;-59
2020/12/08 12:37:08;;;;;;;28.35;18.35;;;7.00;99.90;;;;;;5096960;28;20164;-60